Time;durP1;ratioP1;P1;durP2;ratioP2;P2;SDS_P1;SDS_P2;PMS_P1;PMS_P2;Temp;Humidity;BMP_temperature;BMP_pressure;BME280_temperature;BME280_humidity;BME280_pressure;Samples;Min_cycle;Max_cycle;Signal;HPM_P1;HPM_P2
2022/11/28 00:04:31;;;;;;;8.8;4.5;;;;;;;1.64;78.66992;937.055;;;;
2022/11/28 00:06:57;;;;;;;5.7;4.2;;;;;;;1.75;78.15332;936.9998;;;;
2022/11/28 00:09:28;;;;;;;7.9;4.6;;;;;;;1.81;77.21582;936.9626;;;;
2022/11/28 00:11:57;;;;;;;6.9;4.8;;;;;;;1.92;76.98828;936.9431;;;;
2022/11/28 00:14:27;;;;;;;6.6;4.2;;;;;;;1.87;77.08984;936.9411;;;;
2022/11/28 00:16:52;;;;;;;7.4;4.9;;;;;;;1.79;77.46875;936.9089;;;;
2022/11/28 00:19:22;;;;;;;7.3;4.8;;;;;;;1.76;77.42969;936.8495;;;;
2022/11/28 00:21:59;;;;;;;7.4;4.6;;;;;;;1.83;77.11719;936.811;;;;
2022/11/28 00:24:49;;;;;;;6.7;4.2;;;;;;;1.81;77.26074;936.889;;;;
2022/11/28 00:27:20;;;;;;;6.9;3.9;;;;;;;1.89;76.16797;936.7483;;;;
2022/11/28 00:29:52;;;;;;;7.2;4.3;;;;;;;1.74;77.51465;936.7569;;;;
2022/11/28 00:32:24;;;;;;;8.1;4.9;;;;;;;1.82;78.03223;936.6904;;;;
2022/11/28 00:35:30;;;;;;;5.6;3.9;;;;;;;1.82;78.22266;936.6983;;;;
2022/11/28 00:38:01;;;;;;;6.8;4.5;;;;;;;1.78;77.68848;936.6203;;;;
2022/11/28 00:40:32;;;;;;;5.9;4;;;;;;;1.78;78.07031;936.6275;;;;
2022/11/28 00:43:03;;;;;;;6.8;4.2;;;;;;;1.67;77.6582;936.5588;;;;
2022/11/28 00:45:38;;;;;;;5.7;3.7;;;;;;;1.72;77.13086;936.5897;;;;
2022/11/28 00:48:07;;;;;;;5.7;3.9;;;;;;;1.74;76.49805;936.5977;;;;
2022/11/28 00:50:33;;;;;;;5.6;3.9;;;;;;;1.75;76.77734;936.5963;;;;
2022/11/28 00:52:58;;;;;;;6.6;4.3;;;;;;;1.73;77.29883;936.5892;;;;
2022/11/28 00:58:51;;;;;;;5.7;3.6;;;;;;;1.59;77.85742;936.4799;;;;
2022/11/28 01:01:18;;;;;;;6.8;3.8;;;;;;;1.61;77.98535;936.4812;;;;
2022/11/28 01:03:56;;;;;;;5.5;3.6;;;;;;;1.66;77.75684;936.5103;;;;
2022/11/28 01:06:22;;;;;;;6.5;3.9;;;;;;;1.63;77.01367;936.5053;;;;
2022/11/28 01:08:50;;;;;;;5.5;3.5;;;;;;;1.66;76.75195;936.4619;;;;
2022/11/28 01:11:15;;;;;;;5.6;3.7;;;;;;;1.57;76.89063;936.3975;;;;
2022/11/28 01:13:40;;;;;;;5.7;3.6;;;;;;;1.65;77.02832;936.3875;;;;
2022/11/28 01:16:09;;;;;;;5.8;3.9;;;;;;;1.72;77.27637;936.3575;;;;
2022/11/28 01:18:34;;;;;;;8.3;4.5;;;;;;;1.65;77.72168;936.2447;;;;
2022/11/28 01:21:01;;;;;;;6.3;4.1;;;;;;;1.72;77.41016;936.2468;;;;
2022/11/28 01:23:26;;;;;;;6.4;3.9;;;;;;;1.79;76.5957;936.2489;;;;
2022/11/28 01:25:53;;;;;;;6.1;3.6;;;;;;;1.9;76.45898;936.2346;;;;
2022/11/28 01:28:18;;;;;;;5.9;3.8;;;;;;;1.84;76.62793;936.1928;;;;
2022/11/28 01:30:43;;;;;;;6;3.4;;;;;;;1.83;76.81445;936.212;;;;
2022/11/28 01:33:10;;;;;;;5.5;3.7;;;;;;;1.94;76.38867;936.2092;;;;
2022/11/28 01:35:35;;;;;;;5.6;3.6;;;;;;;1.97;76.60645;936.2333;;;;
2022/11/28 01:38:01;;;;;;;5;2.9;;;;;;;1.95;75.79688;936.1666;;;;
2022/11/28 01:40:26;;;;;;;5.5;3.2;;;;;;;1.98;76.41699;936.243;;;;
2022/11/28 01:42:53;;;;;;;5.4;3.3;;;;;;;1.9;77.34277;936.2651;;;;
2022/11/28 01:45:19;;;;;;;3.8;2.8;;;;;;;1.81;77.5625;936.3819;;;;
2022/11/28 01:47:46;;;;;;;4.3;2.8;;;;;;;1.85;76.84082;936.2897;;;;
2022/11/28 01:50:11;;;;;;;2.6;2.1;;;;;;;1.83;76.21094;936.3989;;;;
2022/11/28 01:52:42;;;;;;;4;2.3;;;;;;;1.97;75.66602;936.3329;;;;
2022/11/28 01:55:08;;;;;;;3.8;2.3;;;;;;;2.03;75.79883;936.2868;;;;
2022/11/28 01:57:33;;;;;;;4.9;2.2;;;;;;;2.12;75.34668;936.1479;;;;
2022/11/28 01:59:59;;;;;;;2.7;1.8;;;;;;;2.28;74.75781;936.2609;;;;
2022/11/28 02:02:24;;;;;;;3.1;2.2;;;;;;;2.39;74.38281;936.2177;;;;
2022/11/28 02:04:52;;;;;;;4;1.8;;;;;;;2.34;74.19727;936.139;;;;
2022/11/28 02:07:17;;;;;;;2.6;1.8;;;;;;;2.39;74.39551;936.1786;;;;
2022/11/28 02:09:43;;;;;;;4.7;1.7;;;;;;;2.44;73.96875;936.1094;;;;
2022/11/28 02:12:19;;;;;;;2.5;1.7;;;;;;;2.48;74.39063;936.1194;;;;
2022/11/28 02:14:44;;;;;;;3.1;2;;;;;;;2.52;73.94727;936.0898;;;;
2022/11/28 02:17:10;;;;;;;3.1;1.8;;;;;;;2.58;73.72461;936.1057;;;;
2022/11/28 02:19:35;;;;;;;2.6;2;;;;;;;2.54;73.53613;936.1119;;;;
2022/11/28 02:22:35;;;;;;;2.8;1.8;;;;;;;2.54;73.58105;936.0365;;;;
2022/11/28 02:25:00;;;;;;;2;1.6;;;;;;;2.67;72.27148;936.0281;;;;
2022/11/28 02:27:25;;;;;;;2.2;1.8;;;;;;;2.77;72.83691;936.0464;;;;
2022/11/28 02:32:37;;;;;;;2.4;1.7;;;;;;;2.74;71.20605;936.0219;;;;
2022/11/28 02:35:03;;;;;;;1.8;1.6;;;;;;;2.94;70.49902;935.9749;;;;
2022/11/28 02:37:31;;;;;;;2.6;1.6;;;;;;;2.96;72.12891;935.9188;;;;
2022/11/28 02:39:56;;;;;;;2.7;1.7;;;;;;;2.93;72.75195;935.9028;;;;
2022/11/28 02:42:27;;;;;;;1.9;1.3;;;;;;;2.81;70.95898;935.8727;;;;
2022/11/28 02:48:49;;;;;;;1;0.8;;;;;;;3.68;61.99219;935.9079;;;;
2022/11/28 02:51:14;;;;;;;1.2;0.7;;;;;;;3.92;61.35156;935.8973;;;;
2022/11/28 02:54:04;;;;;;;0.6;0.6;;;;;;;4.07;60.61914;935.8248;;;;
2022/11/28 02:56:29;;;;;;;0.9;0.6;;;;;;;4.24;59.59863;935.7894;;;;
2022/11/28 02:58:58;;;;;;;0.5;0.5;;;;;;;4.34;60.64746;935.7946;;;;
2022/11/28 03:01:24;;;;;;;1.6;0.6;;;;;;;4.34;60.5918;935.714;;;;
2022/11/28 03:03:49;;;;;;;1;0.9;;;;;;;4.24;62.99609;935.8254;;;;
2022/11/28 03:06:14;;;;;;;2.1;1.4;;;;;;;4.06;64.97168;935.7861;;;;
2022/11/28 03:08:42;;;;;;;1.2;1.1;;;;;;;3.93;66.45898;935.8929;;;;
2022/11/28 03:11:08;;;;;;;2.3;1.5;;;;;;;3.79;68.14648;935.809;;;;
2022/11/28 03:13:35;;;;;;;2.6;1.7;;;;;;;3.81;69.50781;935.7286;;;;
2022/11/28 03:16:02;;;;;;;2.2;1.4;;;;;;;3.76;70.48926;935.7496;;;;
2022/11/28 03:18:26;;;;;;;2.3;1.7;;;;;;;3.71;70.05371;935.7277;;;;
2022/11/28 03:20:57;;;;;;;2.3;1.5;;;;;;;3.79;69.63965;935.7089;;;;
2022/11/28 03:23:22;;;;;;;2.3;1.6;;;;;;;3.81;70.36328;935.6619;;;;
2022/11/28 03:25:48;;;;;;;2.3;1.5;;;;;;;3.56;71.78223;935.5442;;;;
2022/11/28 03:28:13;;;;;;;2.6;1.6;;;;;;;3.38;72.08887;935.4956;;;;
2022/11/28 03:30:38;;;;;;;4.2;1.6;;;;;;;3.41;71.49805;935.4568;;;;
2022/11/28 03:33:03;;;;;;;4.2;1.4;;;;;;;3.46;68.63184;935.3719;;;;
2022/11/28 03:35:28;;;;;;;1.8;1.3;;;;;;;3.6;69.21582;935.3547;;;;
2022/11/28 03:37:55;;;;;;;1.7;1.4;;;;;;;3.67;68.83398;935.332;;;;
2022/11/28 03:40:21;;;;;;;2.1;1.2;;;;;;;3.74;68.24805;935.2719;;;;
2022/11/28 03:42:45;;;;;;;3.6;1.7;;;;;;;3.67;69.74414;935.3014;;;;
2022/11/28 03:45:13;;;;;;;2;1.4;;;;;;;3.58;70.2793;935.2;;;;
2022/11/28 03:47:38;;;;;;;2.6;1.5;;;;;;;3.51;71.33594;935.1704;;;;
2022/11/28 03:50:04;;;;;;;2.4;1.8;;;;;;;3.64;71.85059;935.1161;;;;
2022/11/28 03:52:30;;;;;;;4.6;2.2;;;;;;;3.71;72.79492;935.1175;;;;
2022/11/28 03:54:55;;;;;;;4.5;2.4;;;;;;;3.55;72.80078;935.0862;;;;
2022/11/28 03:57:20;;;;;;;3.6;2.2;;;;;;;3.65;71.56152;935.1149;;;;
2022/11/28 03:59:45;;;;;;;3.1;1.7;;;;;;;3.63;71.21973;935.1238;;;;
2022/11/28 04:02:32;;;;;;;5.1;2.5;;;;;;;3.6;72.66406;935.158;;;;
2022/11/28 04:04:58;;;;;;;5.9;3;;;;;;;3.56;72.44336;935.0945;;;;
2022/11/28 04:07:23;;;;;;;3.8;1.8;;;;;;;3.49;71.04102;935.08;;;;
2022/11/28 04:09:48;;;;;;;3.2;2.6;;;;;;;3.54;72.0918;935.0239;;;;
2022/11/28 04:12:13;;;;;;;2.7;1.8;;;;;;;3.56;71.8252;934.9701;;;;
2022/11/28 04:14:38;;;;;;;3.9;1.8;;;;;;;3.51;71.24512;934.9114;;;;
2022/11/28 04:17:03;;;;;;;1.8;1.5;;;;;;;3.46;70.1709;934.8783;;;;
2022/11/28 04:19:28;;;;;;;2.2;1.4;;;;;;;3.5;70.09766;934.848;;;;
2022/11/28 04:21:55;;;;;;;4;2.6;;;;;;;3.49;71.00586;934.799;;;;
2022/11/28 04:24:19;;;;;;;3.8;2.2;;;;;;;3.63;71.08496;934.7365;;;;
2022/11/28 04:26:44;;;;;;;3.2;1.7;;;;;;;3.64;71.1875;934.6705;;;;
2022/11/28 04:29:09;;;;;;;2.1;1.6;;;;;;;3.6;71.23926;934.7258;;;;
2022/11/28 04:31:34;;;;;;;2.5;1.9;;;;;;;3.65;71.35938;934.722;;;;
2022/11/28 04:33:59;;;;;;;3.4;1.8;;;;;;;3.59;71.69629;934.6744;;;;
2022/11/28 04:36:26;;;;;;;4.3;2.1;;;;;;;3.55;71.71289;934.7425;;;;
2022/11/28 04:38:55;;;;;;;4.6;2.3;;;;;;;3.54;71.63184;934.7468;;;;
2022/11/28 04:41:16;;;;;;;2.4;1.7;;;;;;;3.65;71.34766;934.7363;;;;
2022/11/28 04:43:41;;;;;;;3.1;1.8;;;;;;;3.73;71.16992;934.6448;;;;
2022/11/28 04:46:07;;;;;;;4.2;1.9;;;;;;;3.8;70.96875;934.7108;;;;
2022/11/28 04:48:32;;;;;;;2.6;1.6;;;;;;;3.78;69.35742;934.6989;;;;
2022/11/28 04:50:57;;;;;;;1.9;1.5;;;;;;;3.85;65.99707;934.7628;;;;
2022/11/28 04:53:22;;;;;;;1.2;1.1;;;;;;;4.06;63.375;934.7227;;;;
2022/11/28 04:55:47;;;;;;;2.4;1.2;;;;;;;4.24;63.66016;934.7625;;;;
2022/11/28 04:58:12;;;;;;;1.2;1.1;;;;;;;4.33;63.78613;934.8137;;;;
2022/11/28 05:00:38;;;;;;;0.8;0.8;;;;;;;4.41;63.87891;934.7863;;;;
2022/11/28 05:03:04;;;;;;;1.5;1.1;;;;;;;4.57;63.89063;934.6642;;;;
2022/11/28 05:05:29;;;;;;;3.1;1.4;;;;;;;4.64;64.91309;934.6915;;;;
2022/11/28 05:10:20;;;;;;;2.4;1.1;;;;;;;4.37;64.96387;934.6825;;;;
2022/11/28 05:12:45;;;;;;;2.4;1.1;;;;;;;4.48;65.62207;934.6619;;;;
2022/11/28 05:15:10;;;;;;;3.9;1.3;;;;;;;4.59;63.38672;934.6844;;;;
2022/11/28 05:17:39;;;;;;;0.9;0.7;;;;;;;4.87;59.6084;934.644;;;;
2022/11/28 05:20:10;;;;;;;2.9;1;;;;;;;4.99;60.10938;934.6122;;;;
2022/11/28 05:22:35;;;;;;;2;1;;;;;;;5.1;60.58789;934.6483;;;;
2022/11/28 05:25:01;;;;;;;4.9;1;;;;;;;5.21;60.22949;934.7371;;;;
2022/11/28 05:27:27;;;;;;;5.4;1.5;;;;;;;5.22;60.72754;934.7673;;;;
2022/11/28 05:29:53;;;;;;;2.7;1;;;;;;;5.25;62.15234;934.7254;;;;
2022/11/28 05:32:38;;;;;;;4;1.4;;;;;;;5.24;62.72559;934.8317;;;;
2022/11/28 05:35:05;;;;;;;4.1;1.3;;;;;;;5.04;64.05078;934.83;;;;
2022/11/28 05:37:30;;;;;;;3.2;1.7;;;;;;;4.92;64.45996;934.8621;;;;
2022/11/28 05:39:56;;;;;;;4.6;2;;;;;;;4.85;65.70117;934.8958;;;;
2022/11/28 05:42:22;;;;;;;4.6;1.9;;;;;;;4.89;65.40234;934.8621;;;;
2022/11/28 05:44:49;;;;;;;10.8;4.1;;;;;;;4.78;68.4502;934.8647;;;;
2022/11/28 05:47:14;;;;;;;6.5;3.4;;;;;;;4.89;67.00293;934.8772;;;;
2022/11/28 05:49:37;;;;;;;9.1;3.9;;;;;;;4.89;66.7002;934.9719;;;;
2022/11/28 05:52:21;;;;;;;7.7;3.7;;;;;;;4.88;67.7334;934.9975;;;;
2022/11/28 05:54:48;;;;;;;5;3.6;;;;;;;4.86;68.77832;935.088;;;;
2022/11/28 05:57:13;;;;;;;7.2;3.6;;;;;;;4.8;68.78027;935.0986;;;;
2022/11/28 05:59:38;;;;;;;7.2;4.3;;;;;;;4.9;68.74121;935.1015;;;;
2022/11/28 06:02:08;;;;;;;7.2;3.9;;;;;;;5;68.76855;935.2311;;;;
2022/11/28 06:04:34;;;;;;;13.4;7.6;;;;;;;4.86;69.09473;935.095;;;;
2022/11/28 06:06:59;;;;;;;7.6;5;;;;;;;4.75;68.68262;935.1336;;;;
2022/11/28 06:09:26;;;;;;;3.2;2.3;;;;;;;4.94;66.80664;935.0464;;;;
2022/11/28 06:11:51;;;;;;;4.3;2.6;;;;;;;4.96;68.90723;935.1614;;;;
2022/11/28 06:14:17;;;;;;;4.1;1.9;;;;;;;4.92;67.70605;935.18;;;;
2022/11/28 06:16:43;;;;;;;3.1;2.2;;;;;;;4.88;67.62109;935.2241;;;;
2022/11/28 06:19:07;;;;;;;9.6;2.8;;;;;;;4.96;68.41113;935.2355;;;;
2022/11/28 06:21:35;;;;;;;5.3;2;;;;;;;5.01;67.92285;935.1945;;;;
2022/11/28 06:24:00;;;;;;;4.5;2.5;;;;;;;5.08;66.76172;935.2916;;;;
2022/11/28 06:26:27;;;;;;;14.4;7.9;;;;;;;5.14;66.80469;935.2277;;;;
2022/11/28 06:29:46;;;;;;;16.4;8.3;;;;;;;5.15;65.83594;935.3879;;;;
2022/11/28 06:32:13;;;;;;;20;10.6;;;;;;;5.23;64.27051;935.2886;;;;
2022/11/28 06:34:38;;;;;;;23.1;11.9;;;;;;;5.26;65.03027;935.2797;;;;
2022/11/28 06:37:07;;;;;;;19.7;10.1;;;;;;;5.33;64.4209;935.2894;;;;
2022/11/28 06:39:32;;;;;;;16.7;7.9;;;;;;;5.32;64.15918;935.3002;;;;
2022/11/28 06:41:57;;;;;;;7.6;4.1;;;;;;;5.39;62.47754;935.2883;;;;
2022/11/28 06:44:22;;;;;;;10.3;5.6;;;;;;;5.53;63.2207;935.2272;;;;
2022/11/28 06:47:13;;;;;;;7;4.2;;;;;;;5.62;63.01953;935.2098;;;;
2022/11/28 06:49:37;;;;;;;7.5;4.8;;;;;;;5.72;63.48633;935.1711;;;;
2022/11/28 06:52:03;;;;;;;6.9;4.5;;;;;;;5.72;64.12988;935.2137;;;;
2022/11/28 06:54:28;;;;;;;10.7;5.2;;;;;;;5.78;64.57813;935.1415;;;;
2022/11/28 06:57:31;;;;;;;8.3;4.9;;;;;;;5.73;65.35059;935.0315;;;;
2022/11/28 06:59:55;;;;;;;7.2;4.7;;;;;;;5.43;66.53613;935.0269;;;;
2022/11/28 07:02:23;;;;;;;9.2;6.1;;;;;;;5.35;67.75195;935.0009;;;;
2022/11/28 07:04:46;;;;;;;16.1;8.3;;;;;;;5.34;68.25781;935.0291;;;;
2022/11/28 07:07:14;;;;;;;14.8;8.5;;;;;;;5.28;68.78906;934.9858;;;;
2022/11/28 07:09:39;;;;;;;12.9;8.2;;;;;;;5.14;70.31055;934.8748;;;;
2022/11/28 07:12:05;;;;;;;9.2;5.6;;;;;;;5.09;70.39355;934.9172;;;;
2022/11/28 07:15:19;;;;;;;8;5.6;;;;;;;5.2;70.36621;934.7737;;;;
2022/11/28 07:17:44;;;;;;;11;5.1;;;;;;;5.3;69.73926;934.808;;;;
2022/11/28 07:20:13;;;;;;;15;7.2;;;;;;;5.37;70.4834;934.7542;;;;
2022/11/28 07:22:38;;;;;;;11.7;5.9;;;;;;;5.39;69.7998;934.7351;;;;
2022/11/28 07:25:09;;;;;;;13.9;6.2;;;;;;;5.48;70.32324;934.7106;;;;
2022/11/28 07:27:38;;;;;;;12.5;6.6;;;;;;;5.28;71.03516;934.757;;;;
2022/11/28 07:30:03;;;;;;;10.9;5.9;;;;;;;5.12;71.24512;934.7191;;;;
2022/11/28 07:32:29;;;;;;;11.9;5;;;;;;;5.01;71.22559;934.6746;;;;
2022/11/28 07:35:00;;;;;;;7.4;4.7;;;;;;;4.94;70.33398;934.6591;;;;
2022/11/28 07:37:30;;;;;;;6.6;4.2;;;;;;;4.89;70.29297;934.6365;;;;
2022/11/28 07:39:55;;;;;;;5.8;3;;;;;;;4.83;70.29395;934.5815;;;;
2022/11/28 07:42:23;;;;;;;15.5;4.2;;;;;;;4.81;70.4502;934.6039;;;;
2022/11/28 07:44:48;;;;;;;5.7;2.6;;;;;;;4.8;71.12305;934.6166;;;;
2022/11/28 07:47:16;;;;;;;5.7;2.4;;;;;;;4.89;69.60547;934.5356;;;;
2022/11/28 07:49:41;;;;;;;3.5;2.2;;;;;;;4.91;69.6084;934.5645;;;;
2022/11/28 07:52:10;;;;;;;3.5;1.7;;;;;;;5.01;68.2832;934.5499;;;;
2022/11/28 07:54:35;;;;;;;2.8;1.8;;;;;;;5.12;67.20703;934.5145;;;;
2022/11/28 07:57:02;;;;;;;4.8;1.8;;;;;;;5.21;67.14258;934.4886;;;;
2022/11/28 07:59:27;;;;;;;3;1.6;;;;;;;5.32;65.26465;934.4358;;;;
2022/11/28 08:01:56;;;;;;;4;1.6;;;;;;;5.52;64.50488;934.3734;;;;
2022/11/28 08:04:21;;;;;;;3.1;1.9;;;;;;;5.67;64.56152;934.3484;;;;
2022/11/28 08:06:48;;;;;;;2.5;1.4;;;;;;;5.8;64.85352;934.2328;;;;
2022/11/28 08:09:13;;;;;;;5.5;2.1;;;;;;;6.13;63.27539;934.2592;;;;
2022/11/28 08:11:39;;;;;;;8.9;3.3;;;;;;;6.21;65.15234;934.2728;;;;
2022/11/28 08:14:04;;;;;;;5.5;3.5;;;;;;;6.37;65.51465;934.2347;;;;
2022/11/28 08:16:35;;;;;;;11.1;4.2;;;;;;;6.54;64.83984;934.1851;;;;
2022/11/28 08:19:00;;;;;;;6;3.9;;;;;;;6.7;65.52246;934.3394;;;;
2022/11/28 08:21:27;;;;;;;8.2;4.1;;;;;;;6.77;62.79297;934.2346;;;;
2022/11/28 08:23:52;;;;;;;9.8;3.6;;;;;;;6.82;62.62988;934.2664;;;;
2022/11/28 08:26:17;;;;;;;6.1;3.3;;;;;;;6.91;62.76758;934.2988;;;;
2022/11/28 08:28:44;;;;;;;6.9;3.3;;;;;;;7.03;63.33984;934.3318;;;;
2022/11/28 08:31:09;;;;;;;7.4;3.4;;;;;;;6.98;61.96387;934.2676;;;;
2022/11/28 08:33:35;;;;;;;5.5;3.2;;;;;;;6.68;62.45117;934.2796;;;;
2022/11/28 08:36:00;;;;;;;7.1;3.1;;;;;;;6.51;63.43457;934.2582;;;;
2022/11/28 08:38:28;;;;;;;9;3.5;;;;;;;6.43;63.89746;934.2346;;;;
2022/11/28 08:41:43;;;;;;;7.2;3;;;;;;;6.52;64.125;934.1483;;;;
2022/11/28 08:44:11;;;;;;;9.1;3.8;;;;;;;6.75;63.80859;934.2246;;;;
2022/11/28 08:46:37;;;;;;;7.4;3.4;;;;;;;6.83;64.64844;934.1741;;;;
2022/11/28 08:49:06;;;;;;;13.3;4.4;;;;;;;6.83;63.33398;934.2302;;;;
2022/11/28 08:51:30;;;;;;;5.9;3.6;;;;;;;6.86;63.71191;934.1975;;;;
2022/11/28 08:53:57;;;;;;;6.8;3.9;;;;;;;6.94;63.9502;934.2178;;;;
2022/11/28 08:56:22;;;;;;;9.3;4.2;;;;;;;6.97;64.46387;934.1794;;;;
2022/11/28 08:58:48;;;;;;;11.1;4;;;;;;;6.99;64.95508;934.1902;;;;
2022/11/28 09:01:13;;;;;;;6.9;3.6;;;;;;;7.13;64.92871;934.1135;;;;
2022/11/28 09:03:41;;;;;;;8.8;4.3;;;;;;;7.29;64.69434;934.1295;;;;
2022/11/28 09:06:06;;;;;;;8.1;4.3;;;;;;;7.43;65.67773;934.1628;;;;
2022/11/28 09:08:34;;;;;;;6.7;3.9;;;;;;;7.59;65.28223;934.1642;;;;
2022/11/28 09:10:59;;;;;;;8;4.3;;;;;;;7.69;64.52734;934.2191;;;;
2022/11/28 09:13:24;;;;;;;7.9;4.5;;;;;;;7.78;65.27832;934.1917;;;;
2022/11/28 09:15:49;;;;;;;10;4.4;;;;;;;7.86;65.00684;934.1795;;;;
2022/11/28 09:18:17;;;;;;;12.7;4.8;;;;;;;7.95;65.56641;934.2529;;;;
2022/11/28 09:20:42;;;;;;;6.9;4.1;;;;;;;8.07;65.51465;934.2403;;;;
2022/11/28 09:23:07;;;;;;;11.7;6.2;;;;;;;8.09;66.47168;934.2992;;;;
2022/11/28 09:25:36;;;;;;;14.3;7.1;;;;;;;8.13;66.22754;934.291;;;;
2022/11/28 09:28:01;;;;;;;13.5;8.4;;;;;;;8.2;66.17188;934.2395;;;;
2022/11/28 09:30:30;;;;;;;16.3;9.2;;;;;;;8.21;66.32031;934.2383;;;;
2022/11/28 09:33:00;;;;;;;13.8;8.2;;;;;;;8.18;65.23633;934.2289;;;;
2022/11/28 09:35:25;;;;;;;12;7.8;;;;;;;8.22;65.41211;934.2701;;;;
2022/11/28 09:37:57;;;;;;;13.3;7.1;;;;;;;8.33;65.00781;934.3022;;;;
2022/11/28 09:40:28;;;;;;;16;8.4;;;;;;;8.45;64.4043;934.2138;;;;
2022/11/28 09:42:58;;;;;;;16.4;8.3;;;;;;;8.44;65.07324;934.2645;;;;
2022/11/28 09:45:23;;;;;;;21;13.1;;;;;;;8.48;65.55469;934.2697;;;;
2022/11/28 09:47:48;;;;;;;25.9;16.2;;;;;;;8.32;66.76855;934.437;;;;
2022/11/28 09:50:15;;;;;;;14.5;8.2;;;;;;;8.47;66.54102;934.452;;;;
2022/11/28 09:52:40;;;;;;;10;5.4;;;;;;;8.58;67.24121;934.4508;;;;
2022/11/28 09:55:07;;;;;;;4.6;2.7;;;;;;;8.53;66.4502;934.4717;;;;
2022/11/28 09:57:33;;;;;;;6.5;3.1;;;;;;;8.57;65.56934;934.4952;;;;
2022/11/28 09:59:58;;;;;;;5;2.6;;;;;;;8.5;64.94434;934.5706;;;;
2022/11/28 10:02:23;;;;;;;4.7;2;;;;;;;8.47;65.04102;934.4592;;;;
2022/11/28 10:04:48;;;;;;;5.9;2.5;;;;;;;8.54;64.31543;934.4615;;;;
2022/11/28 10:07:13;;;;;;;2.8;1.9;;;;;;;8.71;63.13281;934.5048;;;;
2022/11/28 10:09:40;;;;;;;2.1;1.5;;;;;;;8.87;62.40723;934.4805;;;;
2022/11/28 10:12:05;;;;;;;1.7;1.5;;;;;;;9.03;61.95313;934.4442;;;;
2022/11/28 10:14:30;;;;;;;2.4;1.4;;;;;;;8.94;62.39551;934.3748;;;;
2022/11/28 10:16:58;;;;;;;2.4;1.7;;;;;;;8.78;64.32617;934.4293;;;;
2022/11/28 10:19:23;;;;;;;2.8;2;;;;;;;8.66;64.25195;934.3663;;;;
2022/11/28 10:21:48;;;;;;;3.4;2;;;;;;;8.65;64.72949;934.3948;;;;
2022/11/28 10:24:13;;;;;;;5.4;2.3;;;;;;;8.64;65.46484;934.3795;;;;
2022/11/28 10:26:39;;;;;;;5.3;2.5;;;;;;;8.59;64.81055;934.351;;;;
2022/11/28 10:29:04;;;;;;;4.1;2.4;;;;;;;8.62;64.29199;934.3825;;;;
2022/11/28 10:31:29;;;;;;;3.9;2.3;;;;;;;8.79;63.33789;934.4127;;;;
2022/11/28 10:33:57;;;;;;;5.6;3.3;;;;;;;8.96;62.94336;934.429;;;;
2022/11/28 10:36:23;;;;;;;7.1;4.2;;;;;;;9.21;61.9209;934.3766;;;;
2022/11/28 10:38:48;;;;;;;4.8;2.8;;;;;;;9.45;61.0459;934.3957;;;;
2022/11/28 10:41:13;;;;;;;4.6;2.4;;;;;;;9.49;59.72852;934.4016;;;;
2022/11/28 10:43:39;;;;;;;3.3;2.2;;;;;;;9.68;59.65332;934.3562;;;;
2022/11/28 10:46:04;;;;;;;2.6;2;;;;;;;9.86;60.4541;934.3329;;;;
2022/11/28 10:48:29;;;;;;;3.7;2.3;;;;;;;10;59.76563;934.2525;;;;
2022/11/28 10:50:54;;;;;;;8.8;3.2;;;;;;;10.05;59.68066;934.2498;;;;
2022/11/28 10:53:20;;;;;;;6.4;3.2;;;;;;;10.04;59.87305;934.3492;;;;
2022/11/28 10:55:45;;;;;;;10.8;3.7;;;;;;;10.01;60.2002;934.2942;;;;
2022/11/28 10:58:10;;;;;;;4.7;2.6;;;;;;;10.12;60.34082;934.3512;;;;
2022/11/28 11:00:36;;;;;;;7.1;3.1;;;;;;;10.25;59.38965;934.3014;;;;
2022/11/28 11:03:01;;;;;;;7.5;2.9;;;;;;;10.35;58.68457;934.3583;;;;
2022/11/28 11:05:26;;;;;;;7;3.3;;;;;;;10.53;57.86328;934.3528;;;;
2022/11/28 11:07:51;;;;;;;9.9;5.9;;;;;;;10.65;57.00195;934.2842;;;;
2022/11/28 11:10:22;;;;;;;11.3;4.4;;;;;;;10.76;57.28906;934.3274;;;;
2022/11/28 11:12:47;;;;;;;23.1;10.6;;;;;;;10.91;57.10254;934.3655;;;;
2022/11/28 11:15:12;;;;;;;4.8;2.9;;;;;;;11.01;57.72266;934.3273;;;;
2022/11/28 11:17:42;;;;;;;5.9;2.3;;;;;;;10.98;56.95313;934.3536;;;;
2022/11/28 11:20:07;;;;;;;5.8;2.5;;;;;;;11.03;57.51855;934.3588;;;;
2022/11/28 11:22:33;;;;;;;2.8;1.6;;;;;;;10.96;56.24219;934.3719;;;;
2022/11/28 11:25:00;;;;;;;2.3;1.6;;;;;;;11.01;55.61914;934.4397;;;;
2022/11/28 11:27:25;;;;;;;5.8;2.2;;;;;;;11.05;54.25195;934.3883;;;;
2022/11/28 11:29:52;;;;;;;34.6;12.9;;;;;;;11.15;55.01953;934.4147;;;;
2022/11/28 11:32:17;;;;;;;50.9;20.7;;;;;;;11.22;53.26758;934.4389;;;;
2022/11/28 11:34:43;;;;;;;49.4;20.5;;;;;;;11.29;53.17285;934.3329;;;;
2022/11/28 11:37:08;;;;;;;33.7;14.3;;;;;;;11.31;54.29492;934.2891;;;;
2022/11/28 11:39:33;;;;;;;92.4;38.2;;;;;;;11.34;53.24707;934.2628;;;;
2022/11/28 11:41:58;;;;;;;7.7;4.5;;;;;;;11.39;52.0752;934.2317;;;;
2022/11/28 11:44:28;;;;;;;5.9;2.6;;;;;;;11.34;53.96875;934.2437;;;;
2022/11/28 11:46:51;;;;;;;4.3;2.7;;;;;;;11.24;55.34082;934.2022;;;;
2022/11/28 11:49:18;;;;;;;3.1;2.3;;;;;;;10.89;52.1875;934.2197;;;;
2022/11/28 11:51:43;;;;;;;3.6;2;;;;;;;10.71;52.37109;934.2095;;;;
2022/11/28 11:54:09;;;;;;;3.2;2.2;;;;;;;10.66;52.06738;934.2365;;;;
2022/11/28 11:56:36;;;;;;;4.4;2.5;;;;;;;10.84;53.6543;934.1862;;;;
2022/11/28 11:59:01;;;;;;;6.2;3;;;;;;;10.96;53.8877;934.2023;;;;
2022/11/28 12:01:26;;;;;;;13.8;5.6;;;;;;;10.86;54.05664;934.2117;;;;
2022/11/28 12:03:53;;;;;;;12.6;7.1;;;;;;;10.75;54.72852;934.1785;;;;
2022/11/28 12:06:18;;;;;;;7.1;4.5;;;;;;;10.8;54.25586;934.1635;;;;
2022/11/28 12:08:43;;;;;;;9.3;4.6;;;;;;;10.86;54.33105;934.2014;;;;
2022/11/28 12:11:08;;;;;;;9.6;4.5;;;;;;;10.9;54.94141;934.1823;;;;
2022/11/28 12:13:34;;;;;;;11.1;5.4;;;;;;;10.83;54.3623;934.1671;;;;
2022/11/28 12:16:02;;;;;;;9.4;5;;;;;;;10.67;55.25488;934.1855;;;;
2022/11/28 12:18:29;;;;;;;12.2;5.2;;;;;;;10.65;54.96777;934.2054;;;;
2022/11/28 12:20:54;;;;;;;8.1;4.6;;;;;;;10.55;55.40039;934.2017;;;;
2022/11/28 12:23:19;;;;;;;9.4;4.6;;;;;;;10.62;55.75098;934.1886;;;;
2022/11/28 12:25:44;;;;;;;8.1;5.1;;;;;;;10.63;55.75293;934.1663;;;;
2022/11/28 12:28:09;;;;;;;6.7;4.5;;;;;;;10.8;55.47754;934.1157;;;;
2022/11/28 12:30:34;;;;;;;9.6;4.8;;;;;;;10.87;55.37207;934.0675;;;;
2022/11/28 12:33:02;;;;;;;8.9;4.7;;;;;;;10.78;55.16602;934.1213;;;;
2022/11/28 12:35:27;;;;;;;7.5;5;;;;;;;10.79;55.95703;934.0958;;;;
2022/11/28 12:37:52;;;;;;;9.6;5.9;;;;;;;10.71;54.84961;934.0478;;;;
2022/11/28 12:40:18;;;;;;;10.4;6.6;;;;;;;10.83;55.8584;934.0109;;;;
2022/11/28 12:42:43;;;;;;;10.9;7.1;;;;;;;11.01;56.14453;934.06;;;;
2022/11/28 12:45:08;;;;;;;8.3;5.3;;;;;;;11.03;57.4043;933.9644;;;;
2022/11/28 12:47:34;;;;;;;9.6;4.6;;;;;;;11;57.10254;933.9737;;;;
2022/11/28 12:49:59;;;;;;;12.8;7;;;;;;;11.06;57.37402;933.8998;;;;
2022/11/28 12:52:26;;;;;;;4.1;2.2;;;;;;;10.97;56.20898;933.9155;;;;
2022/11/28 12:54:51;;;;;;;4.7;2.4;;;;;;;11.01;56.58984;933.941;;;;
2022/11/28 12:57:16;;;;;;;7;3.4;;;;;;;10.94;56.23828;933.8979;;;;
2022/11/28 12:59:41;;;;;;;4.8;2.7;;;;;;;11.09;56.9668;933.8608;;;;
2022/11/28 13:02:06;;;;;;;11;4.7;;;;;;;11.19;57.57324;933.7828;;;;
2022/11/28 13:04:36;;;;;;;9;5.4;;;;;;;11.27;57.32227;933.8563;;;;
2022/11/28 13:07:01;;;;;;;7.4;3.8;;;;;;;11.24;57.87988;933.8699;;;;
2022/11/28 13:09:26;;;;;;;11.1;6;;;;;;;11.09;58.30469;933.8242;;;;
2022/11/28 13:11:51;;;;;;;6.4;3.4;;;;;;;10.95;60.08105;933.8326;;;;
2022/11/28 13:14:16;;;;;;;4.7;4;;;;;;;10.6;60.77344;933.7662;;;;
2022/11/28 13:16:43;;;;;;;1.9;1.8;;;;;;;10.41;61.46582;933.7715;;;;
2022/11/28 13:19:08;;;;;;;4.5;1.8;;;;;;;10.44;60.72852;933.7955;;;;
2022/11/28 13:21:36;;;;;;;4.4;1.9;;;;;;;10.36;60.7959;933.705;;;;
2022/11/28 13:24:01;;;;;;;1.4;1;;;;;;;10.25;61.96875;933.7214;;;;
2022/11/28 13:26:26;;;;;;;3.2;1.8;;;;;;;10.24;62.3877;933.7101;;;;
2022/11/28 13:28:52;;;;;;;3.4;2.2;;;;;;;10.26;62.15234;933.7254;;;;
2022/11/28 13:31:17;;;;;;;3.7;2.3;;;;;;;10.34;61.90137;933.7598;;;;
2022/11/28 13:33:42;;;;;;;4.7;2.2;;;;;;;10.5;62.02637;933.7374;;;;
2022/11/28 13:36:08;;;;;;;2.9;1.8;;;;;;;10.56;61.98926;933.7654;;;;
2022/11/28 13:38:35;;;;;;;3.7;1.6;;;;;;;10.69;62.35059;933.7269;;;;
2022/11/28 13:41:00;;;;;;;1.9;1.2;;;;;;;10.75;61.54688;933.7159;;;;
2022/11/28 13:43:25;;;;;;;1.6;1.3;;;;;;;10.77;61.72266;933.7772;;;;
2022/11/28 13:45:50;;;;;;;3.4;1.8;;;;;;;10.71;62.43262;933.7429;;;;
2022/11/28 13:48:18;;;;;;;3.4;2.1;;;;;;;10.84;62.21289;933.7943;;;;
2022/11/28 13:50:47;;;;;;;3.3;1.9;;;;;;;10.8;63.55469;933.7963;;;;
2022/11/28 13:53:12;;;;;;;5.2;3;;;;;;;10.75;62.65625;933.782;;;;
2022/11/28 13:55:40;;;;;;;6.2;4;;;;;;;10.83;61.01074;933.7855;;;;
2022/11/28 13:58:05;;;;;;;9.1;3.9;;;;;;;10.84;60.32715;933.7951;;;;
2022/11/28 14:00:31;;;;;;;10.2;3.9;;;;;;;10.81;59.56934;933.7728;;;;
2022/11/28 14:03:01;;;;;;;5.9;2.8;;;;;;;10.69;60.78613;933.7723;;;;
2022/11/28 14:05:26;;;;;;;5.9;3;;;;;;;10.44;62.30273;933.8097;;;;
2022/11/28 14:07:55;;;;;;;2.1;1.1;;;;;;;9.98;63.54785;933.7896;;;;
2022/11/28 14:10:23;;;;;;;4.7;1.9;;;;;;;10.07;64.05273;933.7472;;;;
2022/11/28 14:12:47;;;;;;;3.1;1.4;;;;;;;9.86;64.4541;933.7302;;;;
2022/11/28 14:15:11;;;;;;;2.4;1.2;;;;;;;9.76;64.95313;933.7381;;;;
2022/11/28 14:17:36;;;;;;;2.7;1.5;;;;;;;9.86;65.19629;933.692;;;;
2022/11/28 14:20:02;;;;;;;2;1.7;;;;;;;9.93;64.89746;933.7137;;;;
2022/11/28 14:22:26;;;;;;;4.8;1.4;;;;;;;9.83;65.23633;933.6584;;;;
2022/11/28 14:24:51;;;;;;;2.4;1.1;;;;;;;9.71;65.69824;933.6218;;;;
2022/11/28 14:27:16;;;;;;;2.4;1;;;;;;;9.54;66.44531;933.7827;;;;
2022/11/28 14:29:42;;;;;;;1.3;0.8;;;;;;;9.47;66.67383;933.7974;;;;
2022/11/28 14:32:08;;;;;;;1.9;1.2;;;;;;;9.52;67.2959;933.7635;;;;
2022/11/28 14:34:35;;;;;;;1.4;0.9;;;;;;;9.48;67.0625;933.749;;;;
2022/11/28 14:37:00;;;;;;;1.5;0.8;;;;;;;9.55;66.94922;933.6978;;;;
2022/11/28 14:39:25;;;;;;;2.3;1;;;;;;;9.52;67.03516;933.7421;;;;
2022/11/28 14:41:52;;;;;;;1.5;1;;;;;;;9.57;67.17871;933.7416;;;;
2022/11/28 14:44:18;;;;;;;2.6;1.5;;;;;;;9.64;67.12207;933.7048;;;;
2022/11/28 14:46:44;;;;;;;6.4;2.5;;;;;;;9.57;67.40625;933.8036;;;;
2022/11/28 14:49:09;;;;;;;6.6;3.7;;;;;;;9.6;67.52637;933.7903;;;;